Denver, Colorado
Traffic Map
Current Weather Conditions
Denver, Colorado
Few Clouds
Few Clouds
75°
Feels Like: 75°
Wind Chill: 75° Ceiling: Unl
Heat Index: 75° Visibility: 10mi
Dew Point: 29° Wind: 3mph
Humidity: 18% Direction: 90° (E)
Pressure: 30.32in Gusts: 0mph
Raw Report DataKBKF 262158Z 09003KT 10SM FEW100 FEW220 24/M02 A3032 RMK AO2A SLP217 T02381017
Traffic Incident Summary
Active as of:
Severity:
Category:
InformationThere was an issue retrieving the traffic information for this location. Please try a different location or try again shortly.
Advertisements
Track Severe Weather on mobile